createdAt,value
2018-03-17T00:01:00.603Z,33.60
2018-03-17T00:03:28.082Z,31.35
2018-03-17T00:05:55.573Z,30.37
2018-03-17T00:08:23.530Z,29.15
2018-03-17T00:10:50.973Z,31.42
2018-03-17T00:13:18.452Z,31.03
2018-03-17T00:15:45.936Z,37.80
2018-03-17T00:18:13.381Z,38.60
2018-03-17T00:20:41.091Z,33.03
2018-03-17T00:23:08.788Z,30.57
2018-03-17T00:25:36.249Z,31.57
2018-03-17T00:28:03.710Z,32.70
2018-03-17T00:30:32.761Z,29.77
2018-03-17T00:33:00.213Z,37.72
2018-03-17T00:35:28.600Z,33.97
2018-03-17T00:37:56.682Z,38.63
2018-03-17T00:40:25.649Z,29.80
2018-03-17T00:42:53.210Z,30.90
2018-03-17T00:45:21.811Z,30.50
2018-03-17T00:47:49.265Z,24.07
2018-03-17T00:50:16.717Z,34.00
2018-03-17T00:52:44.198Z,33.87
2018-03-17T00:55:11.956Z,25.77
2018-03-17T00:57:39.400Z,30.52
2018-03-17T01:00:06.869Z,29.75
2018-03-17T01:02:38.441Z,28.20
2018-03-17T01:05:06.677Z,33.50
2018-03-17T01:07:34.166Z,34.30
2018-03-17T01:10:01.612Z,32.55
2018-03-17T01:12:29.983Z,25.47
2018-03-17T01:14:57.438Z,21.17
2018-03-17T01:17:28.569Z,23.57
2018-03-17T01:19:56.270Z,31.63
2018-03-17T01:22:23.702Z,30.67
2018-03-17T01:24:51.173Z,21.40
2018-03-17T01:27:19.350Z,30.75
2018-03-17T01:29:46.816Z,35.70
2018-03-17T01:32:18.372Z,24.00
2018-03-17T01:34:46.607Z,28.35
2018-03-17T01:37:14.328Z,29.23
2018-03-17T01:39:41.777Z,31.77
2018-03-17T01:42:09.303Z,33.57
2018-03-17T01:44:36.745Z,33.55
2018-03-17T01:47:04.231Z,32.42
2018-03-17T01:49:31.701Z,26.10
2018-03-17T01:51:59.296Z,35.80
2018-03-17T01:54:31.551Z,29.33
2018-03-17T01:56:59.009Z,22.60
2018-03-17T01:59:26.469Z,25.17
2018-03-17T02:01:53.925Z,32.20
2018-03-17T02:04:25.314Z,20.30
2018-03-17T02:06:53.324Z,30.48
2018-03-17T02:09:20.780Z,29.87
2018-03-17T02:11:48.252Z,29.53
2018-03-17T02:14:15.720Z,24.95
2018-03-17T02:16:43.197Z,24.02
2018-03-17T02:19:12.214Z,19.37
2018-03-17T02:21:39.695Z,17.43
2018-03-17T02:24:07.424Z,28.33
2018-03-17T02:26:34.881Z,26.90
2018-03-17T02:29:02.355Z,29.50
2018-03-17T02:31:29.794Z,10.60
2018-03-17T02:34:00.578Z,26.60
2018-03-17T02:36:28.030Z,32.30
2018-03-17T02:38:57.080Z,24.58
2018-03-17T02:41:24.550Z,26.00
2018-03-17T02:43:52.022Z,21.60
2018-03-17T02:46:19.655Z,22.50
2018-03-17T02:48:50.321Z,29.77
2018-03-17T02:51:17.785Z,27.27
2018-03-17T02:53:45.760Z,28.65
2018-03-17T02:56:13.273Z,34.10
2018-03-17T02:58:40.909Z,23.27
2018-03-17T03:01:08.802Z,27.43
2018-03-17T03:03:36.366Z,16.23
2018-03-17T03:06:03.825Z,17.80
2018-03-17T03:08:31.313Z,27.95
2018-03-17T03:10:58.854Z,32.33
2018-03-17T03:13:26.296Z,33.47
2018-03-17T03:15:54.405Z,31.40
2018-03-17T03:18:21.889Z,29.17
2018-03-17T03:20:49.345Z,29.63
2018-03-17T03:23:17.002Z,34.35
2018-03-17T03:25:44.464Z,25.70
2018-03-17T03:28:11.917Z,23.10
2018-03-17T03:30:39.399Z,23.67
2018-03-17T03:33:07.788Z,29.60
2018-03-17T03:35:35.233Z,23.52
2018-03-17T03:38:02.709Z,30.67
2018-03-17T03:40:30.256Z,31.42
2018-03-17T03:42:57.712Z,31.73
2018-03-17T03:45:25.372Z,31.03
2018-03-17T03:47:52.827Z,28.63
2018-03-17T03:50:23.474Z,30.30
2018-03-17T03:52:51.863Z,31.10
2018-03-17T03:55:19.457Z,29.40
2018-03-17T03:57:46.901Z,25.30
2018-03-17T04:00:15.768Z,28.83
2018-03-17T04:02:44.001Z,34.27
2018-03-17T04:05:11.453Z,19.97
2018-03-17T04:07:38.969Z,36.30
2018-03-17T04:10:10.362Z,20.90
2018-03-17T04:12:37.818Z,29.95
2018-03-17T04:15:05.736Z,22.67
2018-03-17T04:17:33.205Z,34.05
2018-03-17T04:20:00.647Z,32.40
2018-03-17T04:22:28.292Z,35.07
2018-03-17T04:24:55.741Z,29.73
2018-03-17T04:27:23.232Z,33.50
2018-03-17T04:29:50.695Z,36.93
2018-03-17T04:32:18.134Z,27.55
2018-03-17T04:34:45.606Z,26.90
2018-03-17T04:37:13.049Z,24.00
2018-03-17T04:39:40.518Z,23.60
2018-03-17T04:42:09.657Z,28.03
2018-03-17T04:44:37.130Z,22.43
2018-03-17T04:47:04.875Z,16.33
2018-03-17T04:49:32.334Z,28.80
2018-03-17T04:51:59.783Z,25.80
2018-03-17T04:54:27.848Z,28.48
2018-03-17T04:56:55.320Z,31.80
2018-03-17T04:59:22.761Z,24.63
2018-03-17T05:01:50.249Z,23.95
2018-03-17T05:04:17.694Z,16.50
2018-03-17T05:06:45.387Z,22.30
2018-03-17T05:09:13.049Z,16.57
2018-03-17T05:11:40.505Z,22.63
2018-03-17T05:14:07.966Z,25.80
2018-03-17T05:16:36.341Z,18.20
2018-03-17T05:19:04.324Z,22.43
2018-03-17T05:21:35.703Z,28.05
2018-03-17T05:24:03.135Z,26.50
2018-03-17T05:26:31.420Z,13.48
2018-03-17T05:28:58.866Z,23.03
2018-03-17T05:31:26.312Z,21.73
2018-03-17T05:33:53.789Z,28.60
2018-03-17T05:36:22.120Z,28.33
2018-03-17T05:38:54.926Z,28.40
2018-03-17T05:41:22.402Z,12.23
2018-03-17T05:43:49.881Z,28.30
2018-03-17T05:46:18.854Z,19.77
2018-03-17T05:48:46.336Z,26.17
2018-03-17T05:51:13.772Z,26.47
2018-03-17T05:53:41.249Z,33.35
2018-03-17T05:56:08.849Z,25.15
2018-03-17T05:58:36.322Z,26.83
2018-03-17T06:01:03.872Z,27.20
2018-03-17T06:03:31.324Z,28.27
2018-03-17T06:05:59.617Z,18.33
2018-03-17T06:08:27.101Z,23.30
2018-03-17T06:10:54.545Z,25.03
2018-03-17T06:13:21.984Z,32.93
2018-03-17T06:15:49.460Z,16.73
2018-03-17T06:18:16.943Z,24.40
2018-03-17T06:20:44.421Z,26.23
2018-03-17T06:23:13.562Z,24.00
2018-03-17T06:25:41.116Z,16.90
2018-03-17T06:28:08.565Z,25.55
2018-03-17T06:30:36.074Z,29.20
2018-03-17T06:33:03.533Z,23.97
2018-03-17T06:35:31.705Z,27.62
2018-03-17T06:38:02.182Z,23.40
2018-03-17T06:40:29.649Z,26.70
2018-03-17T06:42:57.123Z,28.12
2018-03-17T06:45:24.862Z,15.35
2018-03-17T06:47:53.252Z,14.00
2018-03-17T06:50:21.317Z,22.48
2018-03-17T06:52:52.174Z,25.83
2018-03-17T06:55:19.652Z,24.67
2018-03-17T06:57:47.106Z,28.27
2018-03-17T07:00:14.589Z,27.53
2018-03-17T07:02:42.045Z,31.40
2018-03-17T07:05:09.522Z,15.90
2018-03-17T07:07:36.998Z,28.60
2018-03-17T07:10:04.985Z,27.25
2018-03-17T07:12:32.627Z,28.33
2018-03-17T07:15:00.100Z,22.47
2018-03-17T07:17:27.540Z,27.33
2018-03-17T07:19:55.101Z,27.50
2018-03-17T07:22:22.549Z,25.20
2018-03-17T07:24:50.024Z,22.40
2018-03-17T07:27:17.512Z,24.53
2018-03-17T07:29:45.104Z,26.15
2018-03-17T07:32:13.497Z,26.50
2018-03-17T07:34:40.946Z,24.50
2018-03-17T07:37:08.429Z,27.43
2018-03-17T07:39:35.897Z,25.83
2018-03-17T07:42:04.122Z,22.87
2018-03-17T07:44:31.600Z,21.27
2018-03-17T07:46:59.053Z,22.58
2018-03-17T07:49:26.977Z,28.27
2018-03-17T07:51:54.579Z,24.42
2018-03-17T07:54:22.045Z,28.73
2018-03-17T07:56:49.522Z,24.08
2018-03-17T07:59:16.971Z,20.30
2018-03-17T08:01:44.414Z,20.33
2018-03-17T08:04:11.886Z,23.43
2018-03-17T08:06:39.324Z,13.50
2018-03-17T08:09:10.618Z,20.40
2018-03-17T08:11:38.133Z,22.53
2018-03-17T08:14:06.497Z,18.02
2018-03-17T08:16:33.966Z,21.42
2018-03-17T08:19:01.485Z,20.90
2018-03-17T08:21:28.898Z,21.43
2018-03-17T08:24:00.649Z,23.57
2018-03-17T08:26:28.117Z,14.80
2018-03-17T08:28:55.573Z,13.93
2018-03-17T08:31:23.047Z,16.87
2018-03-17T08:33:50.528Z,22.63
2018-03-17T08:36:18.982Z,17.93
2018-03-17T08:38:46.445Z,20.08
2018-03-17T08:41:18.386Z,21.17
2018-03-17T08:43:46.011Z,21.35
2018-03-17T08:46:13.469Z,18.50
2018-03-17T08:48:40.953Z,20.83
2018-03-17T08:51:08.396Z,19.58
2018-03-17T08:53:36.037Z,23.50
2018-03-17T08:56:04.938Z,21.15
2018-03-17T08:58:32.394Z,21.27
2018-03-17T09:00:59.868Z,16.17
2018-03-17T09:03:27.325Z,17.83
2018-03-17T09:05:54.780Z,19.63
2018-03-17T09:08:23.185Z,18.20
2018-03-17T09:10:54.432Z,23.67
2018-03-17T09:13:21.885Z,18.37
2018-03-17T09:15:49.369Z,20.33
2018-03-17T09:18:18.512Z,15.90
2018-03-17T09:20:45.973Z,16.50
2018-03-17T09:23:13.466Z,23.17
2018-03-17T09:25:40.904Z,12.17
2018-03-17T09:28:08.673Z,18.37
2018-03-17T09:30:36.137Z,21.90
2018-03-17T09:33:03.889Z,24.10
2018-03-17T09:35:31.690Z,14.80
2018-03-17T09:37:59.140Z,18.27
2018-03-17T09:40:30.606Z,18.10
2018-03-17T09:42:58.061Z,17.00
2018-03-17T09:45:25.505Z,17.20
2018-03-17T09:47:53.019Z,15.90
2018-03-17T09:50:21.902Z,16.92
2018-03-17T09:52:49.373Z,17.97
2018-03-17T09:55:16.817Z,20.80
2018-03-17T09:57:44.285Z,17.58
2018-03-17T10:00:11.729Z,17.70
2018-03-17T10:02:39.210Z,10.50
2018-03-17T10:05:06.656Z,13.48
2018-03-17T10:07:34.105Z,12.27
2018-03-17T10:10:02.409Z,16.20
2018-03-17T10:12:29.852Z,17.17
2018-03-17T10:14:57.344Z,15.90
2018-03-17T10:17:24.856Z,15.27
2018-03-17T10:19:52.313Z,8.63
2018-03-17T10:22:19.770Z,18.63
2018-03-17T10:24:47.545Z,13.93
2018-03-17T10:27:14.989Z,14.93
2018-03-17T10:29:43.137Z,14.80
2018-03-17T10:32:10.720Z,16.37
2018-03-17T10:34:38.245Z,15.30
2018-03-17T10:37:05.721Z,18.98
2018-03-17T10:39:33.184Z,14.30
2018-03-17T10:42:00.634Z,25.62
2018-03-17T10:44:28.187Z,16.27
2018-03-17T10:46:55.628Z,23.42
2018-03-17T10:49:23.121Z,18.47
2018-03-17T10:51:50.565Z,22.90
2018-03-17T10:54:18.043Z,18.87
2018-03-17T10:56:50.349Z,14.05
2018-03-17T10:59:17.925Z,18.40
2018-03-17T11:01:47.077Z,18.95
2018-03-17T11:04:14.547Z,16.17
2018-03-17T11:06:42.041Z,19.67
2018-03-17T11:09:09.753Z,13.53
2018-03-17T11:11:37.444Z,16.37
2018-03-17T11:14:05.562Z,15.05
2018-03-17T11:16:33.014Z,10.83
2018-03-17T11:19:00.457Z,12.00
2018-03-17T11:21:27.934Z,16.60
2018-03-17T11:23:55.406Z,12.73
2018-03-17T11:26:22.845Z,16.87
2018-03-17T11:28:50.349Z,19.90
2018-03-17T11:31:17.970Z,18.45
2018-03-17T11:33:45.441Z,17.50
2018-03-17T11:36:13.804Z,26.30
2018-03-17T11:38:41.284Z,11.87
2018-03-17T11:41:09.400Z,25.23
2018-03-17T11:43:36.850Z,20.67
2018-03-17T11:46:05.194Z,15.20
2018-03-17T11:48:32.781Z,11.94
2018-03-17T11:51:00.385Z,14.53
2018-03-17T11:53:27.869Z,12.30
2018-03-17T11:55:55.342Z,17.45
2018-03-17T11:58:22.794Z,13.48
2018-03-17T12:00:50.269Z,15.93
2018-03-17T12:03:17.754Z,16.58
2018-03-17T12:05:45.201Z,12.13
2018-03-17T12:08:12.703Z,16.58
2018-03-17T12:10:40.820Z,7.88
2018-03-17T12:13:11.946Z,11.27
2018-03-17T12:15:39.927Z,17.73
2018-03-17T12:18:07.386Z,8.73
2018-03-17T12:20:35.841Z,8.77
2018-03-17T12:23:03.502Z,11.35
2018-03-17T12:25:31.885Z,12.63
2018-03-17T12:28:03.443Z,12.05
2018-03-17T12:30:39.489Z,15.10
2018-03-17T12:33:07.133Z,13.45
2018-03-17T12:35:34.621Z,8.40
2018-03-17T12:38:02.050Z,12.30
2018-03-17T12:40:29.512Z,11.30
2018-03-17T12:42:57.081Z,12.00
2018-03-17T12:45:28.229Z,12.33
2018-03-17T12:47:56.630Z,12.97
2018-03-17T12:50:24.107Z,10.93
2018-03-17T12:52:51.545Z,8.63
2018-03-17T12:55:19.202Z,14.83
2018-03-17T12:57:47.669Z,10.85
2018-03-17T13:00:15.586Z,15.95
2018-03-17T13:02:43.056Z,12.57
2018-03-17T13:05:10.535Z,17.03
2018-03-17T13:07:38.416Z,6.10
2018-03-17T13:10:06.055Z,9.50
2018-03-17T13:12:33.522Z,9.30
2018-03-17T13:15:00.960Z,5.30
2018-03-17T13:17:29.345Z,16.80
2018-03-17T13:19:57.052Z,14.30
2018-03-17T13:22:24.542Z,14.73
2018-03-17T13:24:51.985Z,16.17
2018-03-17T13:30:25.453Z,11.77
2018-03-17T13:32:58.747Z,12.37
2018-03-17T13:35:37.903Z,8.75
2018-03-17T13:38:05.366Z,9.53
2018-03-17T13:40:50.489Z,12.97
2018-03-17T13:43:18.069Z,9.05
2018-03-17T13:45:48.916Z,13.57
2018-03-17T13:48:16.366Z,10.70
2018-03-17T13:50:44.575Z,11.82
2018-03-17T13:53:13.350Z,8.65
2018-03-17T13:55:40.817Z,8.37
2018-03-17T13:58:09.995Z,15.70
2018-03-17T14:00:37.518Z,11.27
2018-03-17T14:03:04.985Z,16.87
2018-03-17T14:05:32.453Z,15.37
2018-03-17T14:07:59.900Z,12.37
2018-03-17T14:10:29.062Z,11.93
2018-03-17T14:12:56.530Z,11.37
2018-03-17T14:15:23.998Z,15.15
2018-03-17T14:17:51.463Z,15.55
2018-03-17T14:20:18.934Z,9.37
2018-03-17T14:22:46.375Z,13.60
2018-03-17T14:25:14.003Z,9.75
2018-03-17T14:27:43.165Z,6.12
2018-03-17T14:30:13.916Z,10.70
2018-03-17T14:32:41.365Z,13.43
2018-03-17T14:35:08.873Z,11.90
2018-03-17T14:37:36.459Z,8.67
2018-03-17T14:40:03.890Z,7.27
2018-03-17T14:42:31.973Z,7.65
2018-03-17T14:44:59.416Z,9.37
2018-03-17T14:47:26.876Z,9.90
2018-03-17T14:49:54.345Z,12.90
2018-03-17T14:52:21.854Z,10.85
2018-03-17T14:54:49.276Z,8.50
2018-03-17T14:57:16.725Z,11.07
2018-03-17T14:59:44.221Z,9.97
2018-03-17T15:02:11.696Z,6.17
2018-03-17T15:04:39.957Z,12.60
2018-03-17T15:07:07.537Z,16.12
2018-03-17T15:09:34.998Z,11.93
2018-03-17T15:12:02.503Z,13.73
2018-03-17T15:14:29.965Z,16.00
2018-03-17T15:16:57.405Z,8.75
2018-03-17T15:19:24.882Z,12.80
2018-03-17T15:21:52.344Z,17.17
2018-03-17T15:24:21.872Z,15.27
2018-03-17T15:26:49.378Z,13.55
2018-03-17T15:29:16.852Z,13.57
2018-03-17T15:31:44.304Z,13.40
2018-03-17T15:34:11.773Z,18.20
2018-03-17T15:36:39.237Z,12.05
2018-03-17T15:39:07.496Z,14.90
2018-03-17T15:41:35.073Z,14.60
2018-03-17T15:44:02.533Z,15.20
2018-03-17T15:46:33.969Z,13.52
2018-03-17T15:49:01.444Z,17.37
2018-03-17T15:51:28.922Z,15.20
2018-03-17T15:53:57.121Z,14.65
2018-03-17T15:56:24.623Z,10.03
2018-03-17T15:58:52.093Z,13.77
2018-03-17T16:01:19.568Z,11.40
2018-03-17T16:03:47.066Z,16.37
2018-03-17T16:06:14.553Z,11.63
2018-03-17T16:08:42.029Z,13.13
2018-03-17T16:11:10.426Z,15.23
2018-03-17T16:13:37.886Z,13.37
2018-03-17T16:16:05.532Z,13.17
2018-03-17T16:18:33.002Z,8.80
2018-03-17T16:21:00.526Z,16.30
2018-03-17T16:23:30.405Z,10.40
2018-03-17T16:25:57.857Z,12.80
2018-03-17T16:28:25.666Z,16.03
2018-03-17T16:30:54.053Z,9.88
2018-03-17T16:33:21.661Z,18.30
2018-03-17T16:35:49.156Z,15.33
2018-03-17T16:38:16.621Z,16.87
2018-03-17T16:40:44.110Z,11.15
2018-03-17T16:43:11.626Z,15.07
2018-03-17T16:45:39.110Z,13.60
2018-03-17T16:48:08.234Z,15.30
2018-03-17T16:50:35.734Z,17.37
2018-03-17T16:53:03.219Z,20.53
2018-03-17T16:55:30.690Z,14.17
2018-03-17T16:57:58.134Z,13.80
2018-03-17T17:00:27.329Z,11.70
2018-03-17T17:02:55.746Z,14.70
2018-03-17T17:05:23.180Z,22.70
2018-03-17T17:07:52.564Z,20.50
2018-03-17T17:10:20.193Z,11.67
2018-03-17T17:12:48.032Z,14.60
2018-03-17T17:15:17.205Z,11.35
2018-03-17T17:17:44.773Z,15.40
2018-03-17T17:20:12.506Z,7.90
2018-03-17T17:22:39.986Z,14.63
2018-03-17T17:25:08.214Z,18.52
2018-03-17T17:27:35.926Z,19.05
2018-03-17T17:30:03.362Z,15.13
2018-03-17T17:32:31.145Z,18.90
2018-03-17T17:34:58.592Z,14.40
2018-03-17T17:37:26.050Z,11.93
2018-03-17T17:39:55.205Z,15.90
2018-03-17T17:42:22.651Z,12.43
2018-03-17T17:44:50.134Z,14.53
2018-03-17T17:47:17.594Z,16.10
2018-03-17T17:49:45.070Z,15.15
2018-03-17T17:52:13.283Z,15.33
2018-03-17T17:54:40.765Z,13.63
2018-03-17T17:57:09.749Z,16.58
2018-03-17T17:59:37.252Z,13.20
2018-03-17T18:02:04.698Z,12.63
2018-03-17T18:04:32.169Z,12.90
2018-03-17T18:06:59.806Z,12.15
2018-03-17T18:09:28.196Z,11.17
2018-03-17T18:11:55.653Z,15.85
2018-03-17T18:14:23.145Z,10.20
2018-03-17T18:16:50.732Z,12.95
2018-03-17T18:19:21.829Z,14.83
2018-03-17T18:21:49.429Z,12.77
2018-03-17T18:24:17.656Z,15.85
2018-03-17T18:26:45.126Z,6.63
2018-03-17T18:29:12.617Z,22.33
2018-03-17T18:31:40.088Z,14.38
2018-03-17T18:34:11.465Z,15.95
2018-03-17T18:36:38.925Z,12.60
2018-03-17T18:39:07.058Z,16.58
2018-03-17T18:41:34.533Z,10.87
2018-03-17T18:44:02.017Z,12.57
2018-03-17T18:46:29.485Z,26.53
2018-03-17T18:48:57.709Z,16.92
2018-03-17T18:51:26.083Z,14.10
2018-03-17T18:53:53.557Z,12.10
2018-03-17T18:56:21.009Z,9.10
2018-03-17T18:58:48.828Z,8.15
2018-03-17T19:01:16.346Z,11.40
2018-03-17T19:03:44.045Z,12.83
2018-03-17T19:06:11.487Z,12.77
2018-03-17T19:08:40.625Z,7.27
2018-03-17T19:11:08.105Z,10.27
2018-03-17T19:13:35.588Z,15.57
2018-03-17T19:16:03.057Z,10.43
2018-03-17T19:18:30.528Z,15.93
2018-03-17T19:20:58.062Z,12.13
2018-03-17T19:23:25.560Z,11.97
2018-03-17T19:25:53.792Z,8.02
2018-03-17T19:28:21.258Z,13.63
2018-03-17T19:30:48.725Z,9.10
2018-03-17T19:33:16.174Z,8.73
2018-03-17T19:35:47.730Z,15.33
2018-03-17T19:38:15.342Z,8.53
2018-03-17T19:40:43.562Z,12.27
2018-03-17T19:43:11.030Z,15.53
2018-03-17T19:45:38.485Z,15.40
2018-03-17T19:48:05.930Z,9.10
2018-03-17T19:50:36.250Z,12.13
2018-03-17T19:53:03.705Z,8.77
2018-03-17T19:55:31.357Z,12.57
2018-03-17T19:57:58.793Z,7.80
2018-03-17T20:00:26.240Z,14.25
2018-03-17T20:02:53.712Z,9.37
2018-03-17T20:05:22.941Z,14.57
2018-03-17T20:07:50.420Z,14.25
2018-03-17T20:10:17.890Z,10.80
2018-03-17T20:12:45.370Z,15.63
2018-03-17T20:15:12.826Z,15.55
2018-03-17T20:17:41.227Z,12.35
2018-03-17T20:20:08.707Z,14.50
2018-03-17T20:22:36.381Z,15.73
2018-03-17T20:25:03.853Z,8.50
2018-03-17T20:27:31.335Z,11.88
2018-03-17T20:29:58.797Z,14.57
2018-03-17T20:32:26.294Z,12.00
2018-03-17T20:34:53.735Z,14.25
2018-03-17T20:37:21.215Z,11.63
2018-03-17T20:39:49.453Z,13.70
2018-03-17T20:42:16.938Z,13.25
2018-03-17T20:44:44.382Z,7.70
2018-03-17T20:47:11.918Z,13.02
2018-03-17T20:49:39.385Z,10.00
2018-03-17T20:52:06.833Z,14.07
2018-03-17T20:54:34.630Z,11.67
2018-03-17T20:57:03.013Z,15.27
2018-03-17T20:59:30.765Z,15.00
2018-03-17T21:01:58.235Z,19.57
2018-03-17T21:04:25.725Z,14.52
2018-03-17T21:06:53.189Z,17.37
2018-03-17T21:09:20.664Z,14.13
2018-03-17T21:11:48.165Z,14.33
2018-03-17T21:14:15.619Z,14.37
2018-03-17T21:16:43.088Z,12.68
2018-03-17T21:19:10.555Z,13.40
2018-03-17T21:21:38.001Z,12.27
2018-03-17T21:24:06.209Z,11.63
2018-03-17T21:26:33.661Z,9.47
2018-03-17T21:29:01.164Z,15.25
2018-03-17T21:31:28.662Z,14.25
2018-03-17T21:33:56.110Z,19.48
2018-03-17T21:36:23.849Z,11.35
2018-03-17T21:38:51.338Z,21.00
2018-03-17T21:41:19.569Z,20.70
2018-03-17T21:43:47.072Z,15.38
2018-03-17T21:46:14.516Z,13.43
2018-03-17T21:48:42.025Z,17.83
2018-03-17T21:51:09.490Z,20.73
2018-03-17T21:53:36.979Z,13.63
2018-03-17T21:56:04.482Z,13.80
2018-03-17T21:58:31.921Z,17.40
2018-03-17T22:00:59.456Z,14.07
2018-03-17T22:03:27.040Z,13.47
2018-03-17T22:05:54.535Z,16.60
2018-03-17T22:08:26.645Z,15.65
2018-03-17T22:10:54.153Z,17.58
2018-03-17T22:13:21.589Z,22.10
2018-03-17T22:15:49.234Z,13.10
2018-03-17T22:18:16.684Z,23.65
2018-03-17T22:20:44.197Z,22.20
2018-03-17T22:23:16.593Z,12.20
2018-03-17T22:25:44.068Z,23.23
2018-03-17T22:28:11.545Z,17.43
2018-03-17T22:30:39.001Z,16.70
2018-03-17T22:33:08.153Z,16.53
2018-03-17T22:35:35.612Z,21.00
2018-03-17T22:38:07.148Z,18.17
2018-03-17T22:40:34.608Z,17.42
2018-03-17T22:43:02.324Z,25.52
2018-03-17T22:45:29.793Z,19.10
2018-03-17T22:47:57.238Z,17.63
2018-03-17T22:50:24.691Z,26.13
2018-03-17T22:52:52.929Z,19.03
2018-03-17T22:55:20.382Z,16.50
2018-03-17T22:57:47.878Z,25.55
2018-03-17T23:00:16.715Z,14.57
2018-03-17T23:02:44.224Z,25.07
2018-03-17T23:05:11.690Z,17.10
2018-03-17T23:07:39.161Z,19.90
2018-03-17T23:10:09.933Z,23.12
2018-03-17T23:12:37.397Z,11.90
2018-03-17T23:15:05.422Z,24.35
2018-03-17T23:17:32.857Z,16.15
2018-03-17T23:20:00.329Z,21.23
2018-03-17T23:22:27.886Z,21.20
2018-03-17T23:24:55.613Z,19.50
2018-03-17T23:27:23.528Z,21.37
2018-03-17T23:29:51.137Z,17.90
2018-03-17T23:32:18.874Z,22.05
2018-03-17T23:34:46.332Z,14.77
2018-03-17T23:37:13.834Z,20.17
2018-03-17T23:39:41.287Z,17.13
2018-03-17T23:42:08.733Z,24.73
2018-03-17T23:44:36.218Z,15.50
2018-03-17T23:47:03.869Z,17.73
2018-03-17T23:49:31.324Z,20.37
2018-03-17T23:51:58.802Z,20.77
2018-03-17T23:54:27.956Z,26.42
2018-03-17T23:56:55.447Z,20.60
2018-03-17T23:59:23.692Z,18.67
